Time;durP1;ratioP1;P1;durP2;ratioP2;P2;SDS_P1;SDS_P2;PMS_P1;PMS_P2;Temp;Humidity;BMP_temperature;BMP_pressure;BME280_temperature;BME280_humidity;BME280_pressure;Samples;Min_cycle;Max_cycle;Signal;HPM_P1;HPM_P2
2022/04/16 00:00:18;;;;;;;10.47;7.03;;;4.10;99.90;;;;;;5001679;28;20232;-77
2022/04/16 00:02:45;;;;;;;8.23;6.30;;;4.10;99.90;;;;;;5002870;28;20234;-77
2022/04/16 00:05:12;;;;;;;8.70;6.83;;;4.00;99.90;;;;;;5000433;28;20225;-77
2022/04/16 00:07:39;;;;;;;10.87;7.30;;;4.00;99.90;;;;;;4999083;28;20802;-77
2022/04/16 00:10:09;;;;;;;9.00;6.77;;;3.90;99.90;;;;;;5002226;28;20231;-77
2022/04/16 00:12:36;;;;;;;8.47;6.03;;;3.90;99.90;;;;;;5001757;28;20232;-77
2022/04/16 00:15:05;;;;;;;8.63;5.87;;;3.80;99.90;;;;;;5001085;28;20253;-77
2022/04/16 00:17:31;;;;;;;7.37;5.30;;;3.80;99.90;;;;;;5001219;28;20323;-77
2022/04/16 00:19:58;;;;;;;6.90;5.20;;;3.80;99.90;;;;;;4998938;28;20217;-78
2022/04/16 00:22:24;;;;;;;8.00;5.33;;;3.70;99.90;;;;;;5001342;28;20573;-77
2022/04/16 00:24:51;;;;;;;7.43;5.13;;;3.70;99.90;;;;;;4982999;28;20223;-77
2022/04/16 00:27:19;;;;;;;8.47;5.53;;;3.60;99.90;;;;;;4999389;28;20233;-78
2022/04/16 00:29:46;;;;;;;9.10;5.60;;;3.60;99.90;;;;;;5002564;28;20228;-77
2022/04/16 00:32:14;;;;;;;8.17;5.30;;;3.60;99.90;;;;;;5001103;28;20226;-77
2022/04/16 00:34:41;;;;;;;7.27;4.73;;;3.50;99.90;;;;;;5001302;28;20759;-77
2022/04/16 00:37:08;;;;;;;7.27;5.03;;;3.50;99.90;;;;;;5002514;28;20288;-78
2022/04/16 00:39:35;;;;;;;7.03;4.33;;;3.40;99.90;;;;;;5002368;28;20229;-77
2022/04/16 00:42:02;;;;;;;7.07;5.20;;;3.40;99.90;;;;;;5003664;28;20233;-77
2022/04/16 00:44:30;;;;;;;7.77;5.17;;;3.40;99.90;;;;;;4999613;28;20882;-78
2022/04/16 00:46:57;;;;;;;6.63;4.47;;;3.30;99.90;;;;;;5004329;28;20229;-79
2022/04/16 00:49:23;;;;;;;10.10;4.73;;;3.20;99.90;;;;;;5002396;28;20234;-78
2022/04/16 00:51:51;;;;;;;6.50;4.23;;;3.20;99.90;;;;;;4999882;28;20824;-79
2022/04/16 00:54:19;;;;;;;7.20;4.30;;;3.10;99.90;;;;;;5000925;28;20222;-78
2022/04/16 00:56:47;;;;;;;8.27;4.60;;;3.10;99.90;;;;;;4984331;28;20233;-78
2022/04/16 00:59:14;;;;;;;5.77;3.73;;;3.00;99.90;;;;;;4998928;28;20232;-78
2022/04/16 01:01:42;;;;;;;6.63;4.30;;;3.00;99.90;;;;;;5003212;28;20226;-78
2022/04/16 01:04:09;;;;;;;7.00;4.10;;;3.00;99.90;;;;;;4979827;28;20229;-78
2022/04/16 01:06:37;;;;;;;7.10;3.90;;;2.90;99.90;;;;;;5002639;28;20226;-78
2022/04/16 01:09:04;;;;;;;6.10;4.00;;;2.90;99.90;;;;;;4999641;28;20233;-78
2022/04/16 01:11:32;;;;;;;6.90;4.43;;;2.80;99.90;;;;;;5000085;28;20539;-78
2022/04/16 01:13:59;;;;;;;8.17;4.37;;;2.80;99.90;;;;;;5002791;28;20296;-79
2022/04/16 01:16:28;;;;;;;8.50;4.80;;;2.70;99.90;;;;;;5001869;28;21035;-79
2022/04/16 01:18:56;;;;;;;7.17;4.77;;;2.60;99.90;;;;;;5000980;28;20702;-78
2022/04/16 01:21:23;;;;;;;7.77;4.93;;;2.60;99.90;;;;;;4983927;28;20268;-78
2022/04/16 01:23:51;;;;;;;7.57;5.23;;;2.50;99.90;;;;;;4995126;28;20218;-78
2022/04/16 01:26:18;;;;;;;7.97;5.23;;;2.50;99.90;;;;;;5002420;28;20240;-79
2022/04/16 01:28:45;;;;;;;6.77;4.27;;;2.40;99.90;;;;;;4984310;28;20230;-79
2022/04/16 01:31:12;;;;;;;6.23;4.50;;;2.40;99.90;;;;;;5004550;28;20229;-79
2022/04/16 01:33:39;;;;;;;8.50;5.10;;;2.30;99.90;;;;;;4987458;28;20256;-79
2022/04/16 01:36:05;;;;;;;6.90;5.10;;;2.20;99.90;;;;;;4996677;28;20240;-79
2022/04/16 01:38:32;;;;;;;7.07;4.97;;;2.20;99.90;;;;;;4982461;28;20866;-78
2022/04/16 01:41:00;;;;;;;7.10;4.60;;;2.20;99.90;;;;;;4984292;28;20702;-79
2022/04/16 01:43:29;;;;;;;8.87;5.17;;;2.10;99.90;;;;;;4984283;28;20238;-78
2022/04/16 01:45:57;;;;;;;8.10;4.43;;;2.10;99.90;;;;;;5002347;28;20309;-77
2022/04/16 01:48:27;;;;;;;8.57;4.77;;;2.00;99.90;;;;;;5009394;28;20319;-78
2022/04/16 01:50:54;;;;;;;8.47;5.20;;;2.00;99.90;;;;;;5006931;28;20988;-79
2022/04/16 01:53:21;;;;;;;5.63;4.40;;;2.00;99.90;;;;;;4987144;28;20737;-79
2022/04/16 01:55:48;;;;;;;6.07;4.50;;;2.00;99.90;;;;;;5005069;28;20229;-79
2022/04/16 01:58:16;;;;;;;7.50;4.40;;;1.90;99.90;;;;;;5002394;28;20714;-79
2022/04/16 02:00:43;;;;;;;6.30;4.17;;;1.90;99.90;;;;;;5003191;28;20688;-78
2022/04/16 02:03:10;;;;;;;6.20;4.07;;;1.80;99.90;;;;;;5007191;28;20951;-78
2022/04/16 02:05:37;;;;;;;6.10;4.10;;;1.80;99.90;;;;;;5004569;28;20230;-77
2022/04/16 02:08:04;;;;;;;6.90;3.93;;;1.80;99.90;;;;;;5005084;28;20223;-78
2022/04/16 02:10:31;;;;;;;8.60;4.00;;;1.80;99.90;;;;;;5003822;28;20391;-79
2022/04/16 02:12:58;;;;;;;5.87;3.73;;;1.80;99.90;;;;;;5002285;28;20228;-78
2022/04/16 02:15:27;;;;;;;6.63;3.40;;;1.70;99.90;;;;;;5005400;28;20278;-78
2022/04/16 02:17:56;;;;;;;5.97;3.63;;;1.70;99.90;;;;;;5006211;28;20312;-79
2022/04/16 02:20:23;;;;;;;7.07;3.70;;;1.70;99.90;;;;;;5004173;28;20225;-78
2022/04/16 02:22:52;;;;;;;4.57;3.43;;;1.70;99.90;;;;;;5004667;28;20272;-78
2022/04/16 02:25:20;;;;;;;4.80;3.17;;;1.60;99.90;;;;;;5004057;28;20224;-79
2022/04/16 02:27:47;;;;;;;4.63;3.13;;;1.60;99.90;;;;;;4988789;28;20683;-80
2022/04/16 02:30:16;;;;;;;4.70;3.50;;;1.60;99.90;;;;;;5004093;28;20237;-79
2022/04/16 02:32:46;;;;;;;5.73;3.30;;;1.60;99.90;;;;;;5005636;28;20221;-79
2022/04/16 02:35:15;;;;;;;4.73;3.23;;;1.60;99.90;;;;;;4986026;28;20295;-78
2022/04/16 02:37:42;;;;;;;7.33;3.20;;;1.60;99.90;;;;;;5004107;28;20229;-78
2022/04/16 02:40:11;;;;;;;5.37;3.10;;;1.60;99.90;;;;;;5004210;28;20242;-78
2022/04/16 02:42:39;;;;;;;5.57;3.13;;;1.50;99.90;;;;;;5001289;28;20226;-78
2022/04/16 02:47:54;;;;;;;6.93;2.80;;;1.50;99.90;;;;;;4987121;28;20254;-79
2022/04/16 02:50:25;;;;;;;7.57;3.40;;;1.50;99.90;;;;;;5004274;28;20291;-79
2022/04/16 02:52:53;;;;;;;3.73;2.70;;;1.50;99.90;;;;;;5002303;28;20235;-79
2022/04/16 02:55:20;;;;;;;6.33;2.90;;;1.50;99.90;;;;;;5002494;28;20217;-80
2022/04/16 02:57:49;;;;;;;6.77;3.30;;;1.40;99.90;;;;;;5003198;28;20228;-79
2022/04/16 03:00:16;;;;;;;3.70;2.90;;;1.40;99.90;;;;;;4984928;28;21167;-80
2022/04/16 03:02:43;;;;;;;4.07;2.90;;;1.40;99.90;;;;;;5004924;28;20318;-79
2022/04/16 03:05:11;;;;;;;4.53;3.30;;;1.40;99.90;;;;;;5003817;28;20711;-78
2022/04/16 03:07:39;;;;;;;6.33;3.30;;;1.40;99.90;;;;;;5002724;28;20236;-78
2022/04/16 03:10:08;;;;;;;3.83;2.90;;;1.40;99.90;;;;;;4999863;28;20585;-78
2022/04/16 03:12:41;;;;;;;5.30;3.10;;;1.30;99.90;;;;;;5006722;28;20245;-79
2022/04/16 03:17:54;;;;;;;4.90;2.63;;;1.30;99.90;;;;;;5002901;28;20294;-79
2022/04/16 03:20:22;;;;;;;4.63;2.70;;;1.20;99.90;;;;;;4996749;28;20232;-78
2022/04/16 03:22:49;;;;;;;5.60;3.10;;;1.20;99.90;;;;;;5004673;28;20249;-80
2022/04/16 03:25:15;;;;;;;3.67;2.80;;;1.20;99.90;;;;;;5004452;28;20789;-78
2022/04/16 03:27:42;;;;;;;4.73;2.77;;;1.10;99.90;;;;;;5006576;28;20303;-81
2022/04/16 03:30:10;;;;;;;4.30;2.83;;;1.20;99.90;;;;;;5002991;28;20251;-79
2022/04/16 03:32:39;;;;;;;4.33;2.83;;;1.10;99.90;;;;;;5004170;28;20232;-81
2022/04/16 03:35:07;;;;;;;5.00;2.53;;;1.00;99.90;;;;;;5003791;28;20244;-78
2022/04/16 03:37:36;;;;;;;4.07;2.73;;;1.00;99.90;;;;;;5001729;28;20299;-78
2022/04/16 03:40:03;;;;;;;4.10;2.67;;;1.00;99.90;;;;;;4999969;28;20613;-79
2022/04/16 03:42:31;;;;;;;4.50;2.80;;;0.90;99.90;;;;;;5000629;28;20235;-79
2022/04/16 03:44:58;;;;;;;11.77;7.10;;;0.90;99.90;;;;;;5002866;28;20242;-79
2022/04/16 03:47:25;;;;;;;13.00;9.50;;;0.90;99.90;;;;;;5003950;28;20615;-78
2022/04/16 03:49:52;;;;;;;35.67;31.80;;;0.80;99.90;;;;;;4997888;28;20241;-78
2022/04/16 03:52:19;;;;;;;218.20;153.33;;;0.70;99.90;;;;;;5002960;28;20307;-78
2022/04/16 04:00:18;;;;;;;5.67;3.90;;;0.60;99.90;;;;;;4970045;28;20326;-78
2022/04/16 04:02:45;;;;;;;5.73;3.27;;;0.60;99.90;;;;;;5003598;28;20305;-78
2022/04/16 04:05:12;;;;;;;6.23;3.47;;;0.50;99.90;;;;;;5003398;28;20230;-79
2022/04/16 04:07:39;;;;;;;4.27;2.70;;;0.50;99.90;;;;;;4985402;28;20230;-78
2022/04/16 04:10:08;;;;;;;10.80;9.70;;;0.40;99.90;;;;;;5001749;28;20292;-78
2022/04/16 04:12:36;;;;;;;17.27;15.47;;;0.40;99.90;;;;;;5000539;28;20242;-78
2022/04/16 04:15:03;;;;;;;16.93;15.23;;;0.40;99.90;;;;;;4998582;28;20257;-79
2022/04/16 04:17:30;;;;;;;21.87;20.03;;;0.40;99.90;;;;;;4980996;28;20228;-78
2022/04/16 04:19:56;;;;;;;7.83;5.70;;;0.30;99.90;;;;;;5000752;28;20729;-78
2022/04/16 04:22:23;;;;;;;9.53;8.10;;;0.30;99.90;;;;;;4997442;28;20767;-79
2022/04/16 04:24:50;;;;;;;9.90;8.97;;;0.30;99.90;;;;;;4997586;28;20264;-78
2022/04/16 04:27:18;;;;;;;8.63;4.33;;;0.30;99.90;;;;;;5003534;28;20744;-79
2022/04/16 04:29:44;;;;;;;6.23;3.23;;;0.30;99.90;;;;;;4982421;28;20221;-79
2022/04/16 04:32:11;;;;;;;4.50;3.80;;;0.30;99.90;;;;;;4999684;28;20234;-78
2022/04/16 04:34:38;;;;;;;4.83;3.10;;;0.30;99.90;;;;;;5002657;28;20610;-79
2022/04/16 04:37:05;;;;;;;5.80;3.30;;;0.30;99.90;;;;;;4988093;28;20218;-77
2022/04/16 04:39:32;;;;;;;5.60;3.30;;;0.30;99.90;;;;;;5003056;28;20234;-78
2022/04/16 04:41:59;;;;;;;5.77;3.50;;;0.30;99.90;;;;;;5002409;28;20870;-77
2022/04/16 04:44:27;;;;;;;3.80;3.00;;;0.30;99.90;;;;;;4998894;28;20613;-78
2022/04/16 04:46:54;;;;;;;5.17;3.07;;;0.30;99.90;;;;;;4997253;28;20375;-78
2022/04/16 04:49:21;;;;;;;4.63;3.20;;;0.30;99.90;;;;;;4998593;28;20237;-78
2022/04/16 04:51:48;;;;;;;3.60;3.17;;;0.30;99.90;;;;;;4997760;28;20266;-78
2022/04/16 04:54:15;;;;;;;4.13;2.83;;;0.40;99.90;;;;;;4997936;28;20308;-78
2022/04/16 04:56:42;;;;;;;6.37;3.20;;;0.40;99.90;;;;;;5002369;28;20239;-78
2022/04/16 04:59:09;;;;;;;8.23;3.33;;;0.40;99.90;;;;;;5002552;28;20232;-78
2022/04/16 05:01:37;;;;;;;6.97;3.37;;;0.60;99.90;;;;;;4977027;28;20226;-77
2022/04/16 05:04:04;;;;;;;5.30;3.73;;;0.60;99.90;;;;;;5002361;28;20716;-79
2022/04/16 05:06:31;;;;;;;5.67;3.17;;;0.70;99.90;;;;;;4983442;28;20232;-78
2022/04/16 05:08:57;;;;;;;3.90;2.93;;;0.80;99.90;;;;;;5004554;28;20221;-79
2022/04/16 05:11:24;;;;;;;8.27;3.07;;;0.90;99.90;;;;;;5004842;28;20239;-79
2022/04/16 05:13:51;;;;;;;5.30;3.40;;;1.00;99.90;;;;;;5005029;28;20732;-79
2022/04/16 05:16:17;;;;;;;4.33;2.47;;;1.10;99.90;;;;;;5002663;28;20418;-79
2022/04/16 05:18:45;;;;;;;6.43;3.00;;;1.20;99.90;;;;;;4996508;28;20237;-77
2022/04/16 05:21:12;;;;;;;4.20;2.90;;;1.30;99.90;;;;;;4980344;28;20236;-78
2022/04/16 05:23:40;;;;;;;3.33;2.23;;;1.40;99.90;;;;;;4989705;28;20730;-77
2022/04/16 05:26:09;;;;;;;6.07;3.40;;;1.50;99.90;;;;;;5002452;28;20426;-77
2022/04/16 05:28:36;;;;;;;9.60;5.77;;;1.60;99.90;;;;;;5004771;28;20225;-77
2022/04/16 05:31:04;;;;;;;4.80;2.83;;;1.70;99.90;;;;;;5007501;28;20227;-77
2022/04/16 05:36:17;;;;;;;6.13;2.20;;;2.00;99.90;;;;;;5005956;28;20227;-77
2022/04/16 05:38:44;;;;;;;4.20;2.80;;;2.10;99.90;;;;;;5005881;28;20232;-76
2022/04/16 05:41:11;;;;;;;4.63;2.57;;;2.20;99.90;;;;;;5003682;28;20225;-77
2022/04/16 05:43:38;;;;;;;6.10;2.20;;;2.30;99.90;;;;;;5005208;28;20234;-77
2022/04/16 05:46:04;;;;;;;4.30;2.13;;;2.40;99.90;;;;;;5004817;28;20239;-76
2022/04/16 05:48:31;;;;;;;3.63;2.73;;;2.50;99.90;;;;;;4999527;28;20315;-76
2022/04/16 05:50:58;;;;;;;3.90;2.57;;;2.60;99.90;;;;;;4999814;28;20237;-75
2022/04/16 05:53:26;;;;;;;4.43;2.40;;;2.60;99.90;;;;;;4999492;28;20245;-76
2022/04/16 05:55:54;;;;;;;3.27;2.40;;;2.70;99.90;;;;;;5000714;28;20242;-76
2022/04/16 05:58:21;;;;;;;3.83;2.20;;;2.80;99.90;;;;;;4984492;28;20997;-76
2022/04/16 06:00:47;;;;;;;2.80;2.13;;;2.90;99.90;;;;;;4996849;28;20851;-76
2022/04/16 06:03:14;;;;;;;5.27;2.30;;;3.00;99.90;;;;;;5001086;28;20228;-76
2022/04/16 06:05:41;;;;;;;5.33;2.67;;;3.10;99.90;;;;;;4984969;28;20232;-76
2022/04/16 06:08:08;;;;;;;3.63;2.03;;;3.20;99.90;;;;;;5000217;28;20221;-76
2022/04/16 06:10:37;;;;;;;4.20;1.60;;;3.30;99.90;;;;;;4998802;28;20235;-76
2022/04/16 06:13:05;;;;;;;3.93;1.87;;;3.50;99.90;;;;;;4981433;28;20225;-76
2022/04/16 06:15:32;;;;;;;3.60;1.80;;;3.70;99.90;;;;;;4995342;28;20229;-76
2022/04/16 06:17:59;;;;;;;3.57;1.80;;;4.00;99.90;;;;;;4999438;28;20219;-76
2022/04/16 06:20:26;;;;;;;2.07;1.50;;;4.30;99.90;;;;;;5002689;28;20737;-76
2022/04/16 06:22:53;;;;;;;2.63;1.80;;;4.70;99.90;;;;;;4999927;28;20294;-77
2022/04/16 06:25:20;;;;;;;4.23;1.40;;;5.10;99.90;;;;;;4995708;28;20233;-77
2022/04/16 06:27:48;;;;;;;2.00;1.17;;;5.50;99.90;;;;;;4998227;28;20695;-77
2022/04/16 06:30:14;;;;;;;3.40;1.80;;;5.90;99.90;;;;;;4998073;28;20307;-76
2022/04/16 06:32:41;;;;;;;3.07;1.90;;;6.30;99.90;;;;;;4998771;28;20602;-76
2022/04/16 06:35:12;;;;;;;2.30;1.27;;;6.50;99.90;;;;;;4994397;28;20648;-77
2022/04/16 06:37:41;;;;;;;2.63;1.30;;;6.70;99.90;;;;;;4998322;28;20287;-76
2022/04/16 06:40:09;;;;;;;3.27;1.50;;;6.90;99.90;;;;;;4999161;28;20981;-77
2022/04/16 06:42:36;;;;;;;2.30;1.60;;;7.00;99.60;;;;;;4983057;28;20217;-77
2022/04/16 06:45:05;;;;;;;3.60;1.50;;;7.10;99.20;;;;;;4998086;28;20237;-78
2022/04/16 06:47:32;;;;;;;3.13;1.30;;;7.10;99.00;;;;;;5000754;28;20238;-76
2022/04/16 06:49:59;;;;;;;3.47;1.27;;;7.10;99.00;;;;;;5001879;28;20222;-77
2022/04/16 06:52:26;;;;;;;1.17;1.03;;;7.10;98.90;;;;;;5004612;28;20219;-77
2022/04/16 06:54:52;;;;;;;2.60;1.10;;;7.20;98.90;;;;;;5001911;28;20313;-78
2022/04/16 06:57:19;;;;;;;2.07;1.37;;;7.20;98.70;;;;;;5003061;28;20333;-78
2022/04/16 06:59:45;;;;;;;1.60;1.13;;;7.20;98.60;;;;;;4999228;28;20228;-80
2022/04/16 07:02:13;;;;;;;3.50;1.13;;;7.20;98.70;;;;;;5004137;28;20632;-78
2022/04/16 07:04:41;;;;;;;3.93;1.00;;;7.20;98.30;;;;;;5004028;28;20747;-78
2022/04/16 07:07:09;;;;;;;3.33;1.03;;;7.30;98.50;;;;;;5001161;28;20842;-80
2022/04/16 07:09:38;;;;;;;2.07;0.90;;;7.40;98.50;;;;;;4985369;28;20242;-79
2022/04/16 07:12:07;;;;;;;3.53;1.60;;;7.50;98.40;;;;;;4985354;28;20234;-77
2022/04/16 07:14:34;;;;;;;2.40;1.00;;;7.50;98.00;;;;;;5000176;28;20316;-79
2022/04/16 07:17:01;;;;;;;3.47;1.30;;;7.60;97.90;;;;;;4981276;28;20690;-79
2022/04/16 07:19:31;;;;;;;2.70;1.00;;;7.70;97.80;;;;;;5002361;28;20309;-78
2022/04/16 07:21:58;;;;;;;2.37;1.07;;;7.70;97.60;;;;;;5002503;28;20235;-79
2022/04/16 07:24:26;;;;;;;3.00;1.30;;;7.80;97.70;;;;;;4998813;28;20226;-78
2022/04/16 07:26:54;;;;;;;2.00;1.20;;;7.90;97.60;;;;;;4987212;28;20238;-78
2022/04/16 07:29:21;;;;;;;3.13;1.83;;;8.00;97.20;;;;;;5000828;28;20223;-79
2022/04/16 07:31:47;;;;;;;1.80;1.53;;;8.10;97.50;;;;;;4984675;28;20335;-79
2022/04/16 07:34:15;;;;;;;8.47;7.07;;;8.20;97.40;;;;;;5000053;28;20225;-78
2022/04/16 07:36:43;;;;;;;4.10;3.23;;;8.40;97.40;;;;;;5001246;28;20236;-77
2022/04/16 07:39:10;;;;;;;2.93;1.37;;;8.80;97.90;;;;;;4998555;28;20266;-78
2022/04/16 07:41:36;;;;;;;2.50;1.70;;;9.30;97.70;;;;;;5000413;28;20773;-77
2022/04/16 07:44:04;;;;;;;1.87;1.40;;;9.80;97.00;;;;;;4997629;28;20321;-77
2022/04/16 07:46:31;;;;;;;3.43;1.20;;;10.50;96.50;;;;;;4996236;28;20233;-77
2022/04/16 07:48:58;;;;;;;1.33;0.90;;;11.10;96.30;;;;;;4986152;28;20243;-77
2022/04/16 07:51:25;;;;;;;1.70;1.40;;;11.80;95.90;;;;;;4977939;28;20492;-77
2022/04/16 07:53:54;;;;;;;1.33;1.20;;;12.50;94.40;;;;;;4994544;28;21401;-77
2022/04/16 07:56:21;;;;;;;2.93;0.90;;;13.20;92.30;;;;;;4995421;28;20259;-77
2022/04/16 07:58:48;;;;;;;2.80;1.10;;;13.70;92.10;;;;;;4995984;28;20728;-77
2022/04/16 08:01:15;;;;;;;1.03;0.67;;;14.20;91.50;;;;;;4974282;28;20322;-77
2022/04/16 08:03:42;;;;;;;0.87;0.70;;;14.70;91.10;;;;;;4995977;28;20226;-78
2022/04/16 08:06:09;;;;;;;1.73;1.10;;;15.10;89.80;;;;;;5002463;28;20274;-79
2022/04/16 08:08:36;;;;;;;0.97;0.70;;;15.50;88.00;;;;;;4983937;28;20846;-80
2022/04/16 08:11:04;;;;;;;1.53;0.70;;;15.80;85.40;;;;;;4991373;28;20336;-79
2022/04/16 08:13:31;;;;;;;1.63;0.77;;;16.20;83.30;;;;;;5010509;28;20237;-79
2022/04/16 08:15:58;;;;;;;0.97;0.53;;;16.50;83.60;;;;;;4999358;28;20226;-80
2022/04/16 08:18:25;;;;;;;3.93;1.10;;;16.80;81.50;;;;;;4995664;28;20233;-80
2022/04/16 08:20:51;;;;;;;1.67;1.00;;;17.10;77.40;;;;;;4992819;28;20533;-80
2022/04/16 08:23:18;;;;;;;1.53;0.87;;;17.40;79.30;;;;;;5009878;28;20249;-80
2022/04/16 08:25:45;;;;;;;1.73;0.87;;;17.60;78.10;;;;;;5009118;28;20246;-79
2022/04/16 08:28:13;;;;;;;1.07;0.70;;;17.90;76.90;;;;;;5004147;28;20705;-80
2022/04/16 08:30:40;;;;;;;1.10;0.73;;;18.20;74.20;;;;;;5009340;28;20232;-79
2022/04/16 08:33:12;;;;;;;2.80;0.90;;;18.40;74.10;;;;;;5004588;28;20229;-79
2022/04/16 08:35:42;;;;;;;1.33;0.83;;;18.60;71.90;;;;;;5005845;28;20233;-80
2022/04/16 08:38:10;;;;;;;1.03;0.67;;;18.80;70.10;;;;;;5011673;28;20292;-80
2022/04/16 08:40:37;;;;;;;2.67;0.80;;;18.90;69.30;;;;;;5002463;28;20452;-79
2022/04/16 08:43:05;;;;;;;1.73;1.20;;;18.90;69.70;;;;;;4989399;28;20244;-80
2022/04/16 08:45:37;;;;;;;1.70;1.00;;;19.00;67.90;;;;;;5006216;28;20237;-79
2022/04/16 08:48:04;;;;;;;1.80;0.97;;;19.20;66.90;;;;;;5003833;28;20342;-80
2022/04/16 08:50:32;;;;;;;1.80;1.23;;;19.30;67.80;;;;;;5006723;28;20306;-80
2022/04/16 08:52:59;;;;;;;2.27;0.83;;;19.50;67.00;;;;;;5005760;28;20221;-80
2022/04/16 08:55:29;;;;;;;1.87;1.23;;;19.70;66.10;;;;;;5004225;28;20343;-80
2022/04/16 08:57:56;;;;;;;2.77;0.90;;;19.80;65.50;;;;;;5006063;28;20230;-80
2022/04/16 09:00:24;;;;;;;1.17;0.90;;;20.00;64.10;;;;;;5005857;28;20225;-80
2022/04/16 09:02:56;;;;;;;0.85;0.75;;;20.10;61.80;;;;;;5004237;28;20455;-80
2022/04/16 09:05:23;;;;;;;0.93;0.70;;;20.10;61.10;;;;;;5002287;28;20319;-80
2022/04/16 09:07:52;;;;;;;1.80;0.77;;;20.20;62.20;;;;;;5001631;28;20317;-80
2022/04/16 09:10:19;;;;;;;1.93;0.80;;;20.20;59.50;;;;;;4985874;28;20299;-80
2022/04/16 09:12:50;;;;;;;1.93;0.77;;;20.20;59.60;;;;;;5004327;28;20324;-80
2022/04/16 09:15:18;;;;;;;0.90;0.83;;;20.20;58.90;;;;;;5000362;28;20228;-80
2022/04/16 09:17:44;;;;;;;1.95;0.82;;;20.20;59.60;;;;;;5002650;28;20241;-80
2022/04/16 09:20:14;;;;;;;4.85;0.82;;;20.20;57.50;;;;;;4997631;28;20277;-79
2022/04/16 09:22:48;;;;;;;1.35;0.65;;;20.30;58.20;;;;;;5004493;28;20345;-80
2022/04/16 09:25:16;;;;;;;1.38;0.68;;;20.40;58.10;;;;;;5002006;28;20229;-79
2022/04/16 09:27:45;;;;;;;1.80;1.20;;;20.50;57.30;;;;;;5003174;28;20225;-80
2022/04/16 09:30:12;;;;;;;2.93;1.17;;;20.50;57.40;;;;;;4985183;28;20217;-80
2022/04/16 09:32:46;;;;;;;2.38;0.90;;;20.50;57.10;;;;;;5004900;28;20239;-80
2022/04/16 09:35:27;;;;;;;0.70;0.70;;;20.60;53.70;;;;;;5007911;28;20911;-80
2022/04/16 09:37:56;;;;;;;0.80;0.80;;;20.60;53.90;;;;;;5008208;28;20229;-81
2022/04/16 09:40:25;;;;;;;0.68;0.60;;;20.50;53.90;;;;;;5002678;28;20272;-79
2022/04/16 09:42:53;;;;;;;1.53;0.90;;;20.30;53.60;;;;;;5003966;28;21777;-81
2022/04/16 09:45:20;;;;;;;1.10;0.80;;;20.00;54.70;;;;;;5003498;28;20231;-79
2022/04/16 09:47:49;;;;;;;1.13;0.83;;;19.70;54.70;;;;;;5004622;28;20226;-79
2022/04/16 09:50:18;;;;;;;1.52;0.80;;;19.60;55.10;;;;;;5001022;28;20230;-80
2022/04/16 09:52:51;;;;;;;1.00;0.80;;;19.70;55.00;;;;;;5006735;28;20233;-80
2022/04/16 09:55:20;;;;;;;1.23;0.83;;;19.80;53.40;;;;;;5003141;28;20222;-80
2022/04/16 09:57:49;;;;;;;1.03;0.80;;;20.00;53.40;;;;;;4986291;28;20901;-79
2022/04/16 10:00:17;;;;;;;2.40;0.80;;;20.00;53.00;;;;;;4987805;28;20232;-80
2022/04/16 10:02:45;;;;;;;2.40;0.98;;;20.00;52.70;;;;;;5005661;28;20225;-80
2022/04/16 10:05:12;;;;;;;1.10;0.90;;;20.00;53.40;;;;;;5006732;28;20667;-80
2022/04/16 10:07:39;;;;;;;1.10;0.90;;;20.10;53.40;;;;;;5006654;28;20327;-80
2022/04/16 10:10:17;;;;;;;1.20;1.00;;;20.20;52.50;;;;;;5006039;28;20228;-80
2022/04/16 10:13:03;;;;;;;1.25;1.00;;;20.40;51.60;;;;;;4987907;28;20242;-80
2022/04/16 10:15:53;;;;;;;1.45;0.95;;;20.60;53.20;;;;;;5008228;28;20237;-80
2022/04/16 10:18:20;;;;;;;1.10;1.00;;;20.80;52.00;;;;;;5008422;28;20867;-80
2022/04/16 10:20:54;;;;;;;2.53;1.05;;;21.00;52.50;;;;;;4989628;28;20674;-80
2022/04/16 10:23:29;;;;;;;1.23;0.80;;;21.10;51.40;;;;;;5005217;28;20283;-81
2022/04/16 10:26:05;;;;;;;2.05;1.05;;;21.20;48.70;;;;;;5002970;28;20292;-81
2022/04/16 10:28:43;;;;;;;1.23;1.02;;;21.30;49.10;;;;;;5007521;28;21117;-81
2022/04/16 10:31:24;;;;;;;1.13;0.90;;;21.20;49.20;;;;;;4997585;28;20229;-82
2022/04/16 10:33:56;;;;;;;1.45;1.10;;;21.10;49.40;;;;;;5005715;28;20237;-81
2022/04/16 10:36:26;;;;;;;2.08;1.58;;;21.00;48.70;;;;;;4989381;28;20229;-80
2022/04/16 10:38:53;;;;;;;1.55;1.20;;;21.00;48.60;;;;;;5006947;28;20229;-81
2022/04/16 10:41:22;;;;;;;1.80;0.98;;;20.90;49.90;;;;;;5005125;28;20327;-81
2022/04/16 10:43:53;;;;;;;2.13;0.90;;;20.90;49.10;;;;;;5005007;28;20233;-82
2022/04/16 10:46:20;;;;;;;1.58;0.98;;;20.80;48.20;;;;;;5007441;28;20228;-80
2022/04/16 10:48:49;;;;;;;1.05;0.93;;;20.80;49.50;;;;;;5007673;28;20229;-80
2022/04/16 10:51:20;;;;;;;2.30;1.15;;;20.90;49.10;;;;;;5008211;28;20235;-80
2022/04/16 10:53:47;;;;;;;1.40;1.13;;;20.90;47.80;;;;;;5003053;28;20324;-80
2022/04/16 10:56:15;;;;;;;2.30;1.30;;;20.90;48.00;;;;;;5008154;28;20234;-80
2022/04/16 10:58:46;;;;;;;1.67;1.40;;;20.90;47.30;;;;;;5005624;28;20229;-80
2022/04/16 11:01:14;;;;;;;1.55;1.23;;;20.90;48.40;;;;;;5008437;28;20221;-80
2022/04/16 11:03:46;;;;;;;1.88;1.27;;;21.00;49.10;;;;;;4986775;28;20328;-80
2022/04/16 11:06:14;;;;;;;1.77;1.33;;;21.00;47.70;;;;;;5009473;28;20257;-80
2022/04/16 11:08:41;;;;;;;1.73;1.40;;;21.00;48.10;;;;;;5005809;28;20225;-80
2022/04/16 11:11:09;;;;;;;1.35;1.00;;;21.00;48.30;;;;;;5006956;28;20650;-81
2022/04/16 11:13:37;;;;;;;1.45;0.88;;;20.90;48.50;;;;;;4987785;28;20456;-80
2022/04/16 11:16:06;;;;;;;2.05;1.05;;;20.80;46.70;;;;;;5006579;28;20362;-80
2022/04/16 11:18:41;;;;;;;1.50;1.08;;;20.80;47.80;;;;;;5006708;28;20746;-80
2022/04/16 11:21:10;;;;;;;1.33;0.80;;;20.90;48.00;;;;;;4989573;28;20233;-80
2022/04/16 11:23:41;;;;;;;0.95;0.80;;;21.00;48.10;;;;;;5005235;28;20576;-80
2022/04/16 11:34:28;;;;;;;1.10;0.80;;;21.60;44.70;;;;;;4994277;28;20702;-79
2022/04/16 11:36:54;;;;;;;1.13;0.85;;;21.60;46.80;;;;;;5006086;28;20244;-80
2022/04/16 11:39:23;;;;;;;1.63;0.82;;;21.60;46.20;;;;;;5004708;28;20228;-80
2022/04/16 11:41:54;;;;;;;2.10;0.82;;;21.50;44.70;;;;;;5009074;28;20221;-80
2022/04/16 11:44:38;;;;;;;1.65;0.70;;;21.40;45.00;;;;;;5006006;28;20320;-80
2022/04/16 11:47:09;;;;;;;1.50;1.02;;;21.30;45.40;;;;;;5005484;28;20398;-80
2022/04/16 11:49:37;;;;;;;1.25;1.15;;;21.20;46.20;;;;;;5003616;28;20670;-80
2022/04/16 11:52:05;;;;;;;1.73;1.20;;;21.20;45.40;;;;;;5005238;28;20241;-80
2022/04/16 11:54:32;;;;;;;1.75;1.02;;;21.10;45.90;;;;;;5004866;28;20316;-80
2022/04/16 11:56:59;;;;;;;1.03;0.73;;;21.10;45.90;;;;;;5005396;28;20239;-80
2022/04/16 11:59:27;;;;;;;1.00;0.88;;;21.00;44.10;;;;;;5003510;28;20238;-80
2022/04/16 12:01:59;;;;;;;1.75;1.00;;;20.70;44.40;;;;;;5006579;28;20647;-80
2022/04/16 12:04:38;;;;;;;1.20;0.93;;;20.50;45.00;;;;;;5005208;28;20280;-80
2022/04/16 12:07:11;;;;;;;1.60;1.23;;;20.20;46.40;;;;;;5007136;28;20232;-80
2022/04/16 12:09:38;;;;;;;1.90;1.40;;;20.00;45.30;;;;;;5004570;28;20268;-80
2022/04/16 12:12:05;;;;;;;2.40;1.53;;;19.80;44.90;;;;;;5006959;28;20248;-80
2022/04/16 12:14:33;;;;;;;1.87;1.10;;;19.60;44.90;;;;;;4986942;28;20244;-81
2022/04/16 12:17:00;;;;;;;2.30;1.67;;;19.30;45.70;;;;;;5002891;28;20414;-80
2022/04/16 12:19:31;;;;;;;1.30;1.20;;;19.10;45.50;;;;;;4985778;28;20312;-80
2022/04/16 12:21:59;;;;;;;1.27;1.00;;;18.90;46.50;;;;;;4986018;28;20218;-80
2022/04/16 12:24:28;;;;;;;1.30;1.17;;;18.80;46.30;;;;;;5001503;28;20225;-80
2022/04/16 12:26:55;;;;;;;1.27;1.03;;;18.80;47.10;;;;;;5001668;28;20225;-80
2022/04/16 12:29:27;;;;;;;3.77;1.80;;;18.80;47.30;;;;;;5006222;28;20229;-81
2022/04/16 12:31:58;;;;;;;2.13;1.40;;;18.80;46.00;;;;;;5004629;28;20229;-81
2022/04/16 12:34:25;;;;;;;2.07;1.57;;;18.80;46.30;;;;;;5001562;28;20225;-81
2022/04/16 12:36:52;;;;;;;2.50;1.80;;;18.90;46.80;;;;;;5004016;28;20612;-80
2022/04/16 12:39:23;;;;;;;3.57;2.87;;;18.90;46.50;;;;;;4989296;28;20230;-81
2022/04/16 12:41:51;;;;;;;2.50;1.70;;;18.90;47.40;;;;;;5003542;28;20304;-82
2022/04/16 12:44:18;;;;;;;1.43;1.30;;;19.00;46.20;;;;;;5002046;28;20620;-81
2022/04/16 12:46:45;;;;;;;2.20;1.73;;;19.10;47.60;;;;;;4997244;28;20777;-81
2022/04/16 12:49:17;;;;;;;3.37;3.07;;;19.10;48.10;;;;;;5008935;28;20227;-80
2022/04/16 12:51:47;;;;;;;2.60;1.80;;;19.20;47.40;;;;;;4990965;28;20237;-81
2022/04/16 12:54:15;;;;;;;3.27;1.90;;;19.20;47.50;;;;;;5001629;28;20292;-82
2022/04/16 12:56:43;;;;;;;1.90;1.40;;;19.20;46.90;;;;;;5009481;28;20241;-81
2022/04/16 12:59:10;;;;;;;2.77;1.57;;;19.20;46.50;;;;;;5009184;28;20702;-81
2022/04/16 13:01:37;;;;;;;2.03;1.83;;;19.20;46.70;;;;;;5004076;28;20233;-81
2022/04/16 13:04:04;;;;;;;1.67;1.57;;;19.20;46.40;;;;;;5008089;28;20628;-82
2022/04/16 13:06:31;;;;;;;9.90;7.70;;;19.10;46.60;;;;;;5008302;28;20778;-81
2022/04/16 13:09:00;;;;;;;2.60;1.90;;;19.00;46.70;;;;;;4979291;28;20230;-81
2022/04/16 13:11:27;;;;;;;2.00;1.50;;;18.90;47.20;;;;;;5008097;28;20233;-80
2022/04/16 13:13:56;;;;;;;3.20;1.83;;;18.90;47.30;;;;;;5001681;28;20221;-80
2022/04/16 13:16:23;;;;;;;1.93;1.33;;;18.90;46.80;;;;;;5004554;28;20328;-81
2022/04/16 13:18:49;;;;;;;1.73;1.53;;;19.00;46.40;;;;;;5008564;28;20236;-81